Airfield :
LOGIN :

Register | Disclaimer

   EN    FR    IT 

 










Legend :    VFR   Marginal VFR   IFR   Intensive IFR   Very Intensive IFR
Visi :
Ceiling :
>= 8 km
>= 3000ft
5 to 8 km
1000 to 3000 ft
1500m to 5 km
500 to 1000 ft
800 to 1500m
200 to 500 ft
< 800m
< 200 ft
Symbols :   Thunderstorms  Fog  Heavy snow  Heavy precipitations  Wind > 20 kt
SIGMETs :     Misc.  Thunderstorms  Icing  Turbulence  Mountain Waves  Volcanic Ashes







- Airport Elevation : 362 ft
- IATA code : WAW


EPWA - Warsaw Okecie

CURRENT METAR :
  • 181900Z 36004KT 310V030 CAVOK 22/16 Q1017 NOSIG

EXPIRED METARs :
  • 181830Z 29003KT CAVOK 22/16 Q1017 NOSIG
  • 181800Z 26003KT CAVOK 21/16 Q1017 NOSIG
  • 181730Z VRB02KT CAVOK 23/15 Q1017 NOSIG
  • 181700Z 04004KT 010V070 CAVOK 24/15 Q1016 NOSIG
  • 181630Z 33007KT CAVOK 23/15 Q1016 NOSIG

TAF TAF EPWA
Valid from the 18 at 18:00 until the 19 at 18:00 UTC


181730Z 1818/1918 34004KT CAVOK
PROB40
TEMPO 1818/1820 SCT040CB
BECMG 1905/1908 27010KT
No reported NOTAMs for that airfield.
1 SIGMET reported for the Warszawa FIR (EPWW) :
 
Embedded thunderstorms
EPWW SIGMET 1 VALID 181515/181915 EPWA
EPWW WARSAW FIR EMBD TS OBS E OF LINE N5130 E02330 - N5040 E02110 - N4900 E02210 TOP FL350 MOV NE NC=



MET'MAP, your aeronautical weather chart ! - Copyright ORBIFLY December 2007 - Disclaimer

ORBIFLY MET'MAP TEAM :

Programming & Development : Alexandra Zaïnal
Concept & Development : Baudouin d'Aumeries
Co-Development & Prog : Marc-Olivier Méhu
Technical & hardware support : Manuel Goepfert

Contact : metmap@orbifly.com




SOURCES & CREDITS :

   NOAA